createdAt,value
2018-04-27T00:00:05.868Z,3.27
2018-04-27T00:02:35.585Z,3.23
2018-04-27T00:05:04.438Z,3.50
2018-04-27T00:07:32.120Z,4.70
2018-04-27T00:10:00.538Z,4.20
2018-04-27T00:12:28.202Z,5.37
2018-04-27T00:14:55.824Z,5.17
2018-04-27T00:17:24.248Z,6.57
2018-04-27T00:19:51.885Z,4.70
2018-04-27T00:22:19.536Z,4.70
2018-04-27T00:24:47.197Z,4.97
2018-04-27T00:27:14.850Z,5.70
2018-04-27T00:29:43.262Z,6.40
2018-04-27T00:32:10.954Z,5.90
2018-04-27T00:34:38.601Z,5.20
2018-04-27T00:37:06.248Z,6.50
2018-04-27T00:39:34.676Z,6.40
2018-04-27T00:42:04.393Z,6.50
2018-04-27T00:44:33.781Z,9.50
2018-04-27T00:47:01.408Z,6.97
2018-04-27T00:49:29.084Z,6.87
2018-04-27T00:51:56.706Z,5.87
2018-04-27T00:54:24.371Z,6.60
2018-04-27T00:56:52.036Z,8.63
2018-04-27T00:59:19.683Z,5.27
2018-04-27T01:01:47.344Z,6.03
2018-04-27T01:04:15.013Z,5.50
2018-04-27T01:06:42.649Z,6.03
2018-04-27T01:09:11.082Z,6.27
2018-04-27T01:11:38.724Z,5.73
2018-04-27T01:14:06.393Z,6.60
2018-04-27T01:16:35.293Z,6.33
2018-04-27T01:19:02.992Z,5.90
2018-04-27T01:21:30.667Z,7.40
2018-04-27T01:23:59.086Z,6.43
2018-04-27T01:26:26.743Z,8.33
2018-04-27T01:28:54.381Z,7.87
2018-04-27T01:31:22.035Z,6.97
2018-04-27T01:33:50.446Z,8.07
2018-04-27T01:36:18.139Z,7.27
2018-04-27T01:38:46.340Z,7.90
2018-04-27T01:41:14.773Z,8.40
2018-04-27T01:43:42.431Z,7.47
2018-04-27T01:46:10.091Z,7.97
2018-04-27T01:48:37.731Z,7.33
2018-04-27T01:51:05.385Z,8.70
2018-04-27T01:53:33.012Z,8.43
2018-04-27T01:56:00.669Z,11.70
2018-04-27T01:58:28.279Z,7.90
2018-04-27T02:00:55.940Z,8.90
2018-04-27T02:03:23.548Z,6.60
2018-04-27T02:05:51.232Z,7.90
2018-04-27T02:08:19.640Z,9.17
2018-04-27T02:10:47.316Z,7.80
2018-04-27T02:13:14.969Z,7.83
2018-04-27T02:15:43.414Z,10.17
2018-04-27T02:18:11.846Z,8.60
2018-04-27T02:20:39.494Z,11.10
2018-04-27T02:23:07.167Z,9.30
2018-04-27T02:25:34.822Z,8.90
2018-04-27T02:28:03.002Z,7.97
2018-04-27T02:30:30.671Z,7.57
2018-04-27T02:32:58.346Z,10.00
2018-04-27T02:35:25.993Z,9.03
2018-04-27T02:37:53.664Z,7.43
2018-04-27T02:40:21.321Z,9.70
2018-04-27T02:42:48.998Z,8.90
2018-04-27T02:45:16.652Z,7.80
2018-04-27T02:47:44.329Z,7.17
2018-04-27T02:50:12.769Z,7.17
2018-04-27T02:52:40.451Z,7.23
2018-04-27T02:55:08.126Z,6.80
2018-04-27T02:57:35.787Z,5.87
2018-04-27T03:00:04.434Z,6.30
2018-04-27T03:02:32.097Z,5.93
2018-04-27T03:04:59.775Z,4.97
2018-04-27T03:07:27.439Z,4.17
2018-04-27T03:09:55.140Z,6.93
2018-04-27T03:12:23.542Z,5.70
2018-04-27T03:14:51.210Z,5.80
2018-04-27T03:17:18.853Z,6.10
2018-04-27T03:19:46.518Z,8.07
2018-04-27T03:22:14.166Z,5.63
2018-04-27T03:24:41.833Z,6.33
2018-04-27T03:27:09.488Z,6.00
2018-04-27T03:29:37.919Z,5.00
2018-04-27T03:32:05.584Z,5.40
2018-04-27T03:34:34.581Z,5.90
2018-04-27T03:37:03.044Z,4.70
2018-04-27T03:39:30.701Z,5.83
2018-04-27T03:41:58.351Z,5.40
2018-04-27T03:44:26.006Z,7.40
2018-04-27T03:46:53.680Z,6.40
2018-04-27T03:49:21.332Z,14.80
2018-04-27T03:51:49.019Z,11.63
2018-04-27T03:54:16.705Z,5.50
2018-04-27T03:56:44.356Z,8.83
2018-04-27T03:59:11.992Z,6.30
2018-04-27T04:01:51.576Z,6.90
2018-04-27T04:04:31.888Z,7.07
2018-04-27T04:06:59.573Z,7.47
2018-04-27T04:09:27.228Z,8.00
2018-04-27T04:11:54.900Z,6.93
2018-04-27T04:14:22.548Z,8.27
2018-04-27T04:16:50.211Z,8.20
2018-04-27T04:19:17.859Z,9.33
2018-04-27T04:21:45.540Z,10.53
2018-04-27T04:24:13.264Z,9.77
2018-04-27T04:26:41.635Z,12.87
2018-04-27T04:29:09.296Z,9.50
2018-04-27T04:31:36.937Z,13.10
2018-04-27T04:34:05.375Z,15.27
2018-04-27T04:36:33.040Z,11.40
2018-04-27T04:39:00.720Z,12.50
2018-04-27T04:41:28.386Z,14.20
2018-04-27T04:43:56.821Z,12.00
2018-04-27T04:46:24.457Z,20.57
2018-04-27T04:48:52.124Z,15.80
2018-04-27T04:51:19.778Z,18.07
2018-04-27T04:53:47.487Z,19.00
2018-04-27T04:56:15.143Z,14.63
2018-04-27T04:58:42.812Z,14.17
2018-04-27T05:01:10.454Z,17.37
2018-04-27T05:03:38.116Z,15.17
2018-04-27T05:06:05.764Z,17.00
2018-04-27T05:08:34.376Z,18.23
2018-04-27T05:11:02.045Z,16.47
2018-04-27T05:13:29.697Z,14.87
2018-04-27T05:15:57.356Z,17.47
2018-04-27T05:21:35.198Z,19.43
2018-04-27T05:24:04.067Z,19.57
2018-04-27T05:26:31.736Z,22.03
2018-04-27T05:28:59.414Z,15.60
2018-04-27T05:31:27.827Z,16.97
2018-04-27T05:33:55.465Z,15.37
2018-04-27T05:36:23.880Z,19.27
2018-04-27T05:38:51.500Z,16.83
2018-04-27T05:41:19.167Z,22.33
2018-04-27T05:43:47.542Z,19.10
2018-04-27T05:46:15.186Z,15.63
2018-04-27T05:48:42.809Z,18.13
2018-04-27T05:51:10.453Z,15.23
2018-04-27T05:53:38.097Z,14.77
2018-04-27T05:56:05.825Z,17.80
2018-04-27T05:58:34.454Z,15.83
2018-04-27T06:01:02.158Z,16.77
2018-04-27T06:03:41.718Z,23.20
2018-04-27T06:06:09.388Z,17.23
2018-04-27T06:08:37.787Z,16.43
2018-04-27T06:11:05.430Z,22.30
2018-04-27T06:13:34.860Z,15.17
2018-04-27T06:16:02.945Z,16.20
2018-04-27T06:18:30.610Z,19.87
2018-04-27T06:20:58.266Z,21.73
2018-04-27T06:23:25.933Z,21.60
2018-04-27T06:25:53.580Z,16.80
2018-04-27T06:28:21.249Z,19.10
2018-04-27T06:30:48.887Z,16.10
2018-04-27T06:33:16.557Z,19.17
2018-04-27T06:35:44.210Z,21.23
2018-04-27T06:38:11.878Z,17.30
2018-04-27T06:40:39.521Z,17.63
2018-04-27T06:43:07.946Z,17.07
2018-04-27T06:45:35.600Z,17.47
2018-04-27T06:48:04.031Z,17.03
2018-04-27T06:50:32.978Z,16.07
2018-04-27T06:53:00.641Z,20.93
2018-04-27T06:55:28.276Z,18.07
2018-04-27T06:57:55.908Z,19.93
2018-04-27T07:00:24.335Z,15.83
2018-04-27T07:02:51.994Z,16.77
2018-04-27T07:05:19.745Z,17.77
2018-04-27T07:07:47.329Z,16.77
2018-04-27T07:10:14.997Z,19.30
2018-04-27T07:12:42.637Z,16.57
2018-04-27T07:15:10.301Z,14.83
2018-04-27T07:17:37.932Z,14.57
2018-04-27T07:20:05.590Z,15.50
2018-04-27T07:22:34.243Z,16.13
2018-04-27T07:25:01.897Z,15.40
2018-04-27T07:27:29.549Z,15.93
2018-04-27T07:29:57.189Z,15.23
2018-04-27T07:32:24.886Z,13.40
2018-04-27T07:34:52.486Z,16.30
2018-04-27T07:37:20.116Z,14.90
2018-04-27T07:39:48.558Z,15.60
2018-04-27T07:42:16.185Z,14.27
2018-04-27T07:44:43.814Z,15.87
2018-04-27T07:47:11.481Z,17.20
2018-04-27T07:49:39.893Z,14.67
2018-04-27T07:52:07.560Z,13.43
2018-04-27T07:54:35.194Z,19.57
2018-04-27T07:57:03.641Z,13.77
2018-04-27T07:59:31.266Z,14.77
2018-04-27T08:01:58.916Z,15.20
2018-04-27T08:04:26.546Z,19.80
2018-04-27T08:06:54.959Z,13.87
2018-04-27T08:09:22.588Z,12.67
2018-04-27T08:11:51.018Z,15.13
2018-04-27T08:14:19.409Z,12.60
2018-04-27T08:16:47.069Z,11.17
2018-04-27T08:19:14.709Z,12.00
2018-04-27T08:21:42.357Z,11.07
2018-04-27T08:24:09.994Z,13.57
2018-04-27T08:26:38.424Z,15.30
2018-04-27T08:29:06.046Z,13.63
2018-04-27T08:31:35.014Z,13.73
2018-04-27T08:34:03.436Z,11.60
2018-04-27T08:36:31.063Z,16.23
2018-04-27T08:38:59.468Z,12.73
2018-04-27T08:41:27.097Z,13.53
2018-04-27T08:43:55.528Z,9.90
2018-04-27T08:46:23.141Z,11.27
2018-04-27T08:48:51.553Z,16.03
2018-04-27T08:51:19.181Z,10.93
2018-04-27T08:53:47.594Z,8.93
2018-04-27T08:56:15.217Z,10.80
2018-04-27T08:58:43.636Z,12.13
2018-04-27T09:01:11.252Z,12.20
2018-04-27T09:03:38.893Z,11.80
2018-04-27T09:06:06.512Z,9.60
2018-04-27T09:08:35.036Z,11.13
2018-04-27T09:11:03.320Z,10.67
2018-04-27T09:13:30.985Z,20.03
2018-04-27T09:15:58.610Z,18.13
2018-04-27T09:18:26.285Z,9.93
2018-04-27T09:20:53.904Z,13.93
2018-04-27T09:23:21.532Z,9.10
2018-04-27T09:25:49.201Z,10.47
2018-04-27T09:28:17.601Z,11.67
2018-04-27T09:30:45.232Z,7.73
2018-04-27T09:33:12.852Z,12.83
2018-04-27T09:35:40.499Z,7.37
2018-04-27T09:38:08.137Z,9.83
2018-04-27T09:40:35.783Z,7.37
2018-04-27T09:43:05.216Z,6.53
2018-04-27T09:45:34.044Z,10.20
2018-04-27T09:48:01.683Z,8.27
2018-04-27T09:50:29.324Z,7.10
2018-04-27T09:52:56.946Z,6.60
2018-04-27T09:55:24.573Z,8.60
2018-04-27T09:57:52.200Z,7.13
2018-04-27T10:00:19.827Z,7.53
2018-04-27T10:02:47.481Z,6.73
2018-04-27T10:05:15.086Z,7.10
2018-04-27T10:07:42.718Z,9.07
2018-04-27T10:10:11.100Z,12.97
2018-04-27T10:12:39.513Z,11.73
2018-04-27T10:15:07.205Z,6.27
2018-04-27T10:17:34.801Z,7.80
2018-04-27T10:20:04.029Z,7.13
2018-04-27T10:22:31.684Z,8.33
2018-04-27T10:24:59.303Z,8.83
2018-04-27T10:27:26.965Z,12.20
2018-04-27T10:29:54.616Z,10.87
2018-04-27T10:32:22.247Z,11.23
2018-04-27T10:34:49.865Z,12.23
2018-04-27T10:37:18.259Z,10.30
2018-04-27T10:39:45.872Z,11.67
2018-04-27T10:42:13.535Z,8.07
2018-04-27T10:44:41.145Z,9.60
2018-04-27T10:47:08.760Z,8.73
2018-04-27T10:49:36.402Z,11.10
2018-04-27T10:52:04.472Z,7.40
2018-04-27T10:54:32.118Z,9.33
2018-04-27T10:56:59.732Z,7.20
2018-04-27T10:59:28.137Z,9.60
2018-04-27T11:01:55.754Z,7.80
2018-04-27T11:04:23.403Z,8.63
2018-04-27T11:06:51.009Z,9.20
2018-04-27T11:09:18.640Z,9.70
2018-04-27T11:11:46.266Z,8.07
2018-04-27T11:14:13.919Z,7.23
2018-04-27T11:16:41.574Z,8.23
2018-04-27T11:19:09.198Z,12.07
2018-04-27T11:21:37.593Z,8.50
2018-04-27T11:24:05.233Z,12.80
2018-04-27T11:26:33.622Z,8.70
2018-04-27T11:29:02.124Z,7.90
2018-04-27T11:31:31.282Z,8.73
2018-04-27T11:33:58.896Z,7.87
2018-04-27T11:36:26.537Z,8.87
2018-04-27T11:38:54.159Z,14.17
2018-04-27T11:41:21.872Z,9.70
2018-04-27T11:43:49.419Z,7.93
2018-04-27T11:46:17.065Z,9.20
2018-04-27T11:48:45.460Z,6.23
2018-04-27T11:51:13.122Z,9.73
2018-04-27T11:53:40.741Z,8.47
2018-04-27T11:56:08.380Z,7.57
2018-04-27T11:58:36.001Z,6.97
2018-04-27T12:01:04.104Z,10.40
2018-04-27T12:03:31.698Z,12.77
2018-04-27T12:05:59.326Z,6.57
2018-04-27T12:08:26.939Z,6.90
2018-04-27T12:10:55.340Z,6.67
2018-04-27T12:13:22.948Z,6.23
2018-04-27T12:15:50.572Z,6.30
2018-04-27T12:18:18.229Z,5.53
2018-04-27T12:20:45.845Z,5.00
2018-04-27T12:23:14.258Z,6.23
2018-04-27T12:25:41.858Z,10.83
2018-04-27T12:28:09.502Z,10.33
2018-04-27T12:30:37.112Z,6.10
2018-04-27T12:33:05.514Z,5.30
2018-04-27T12:35:34.413Z,9.43
2018-04-27T12:38:02.050Z,7.47
2018-04-27T12:40:29.678Z,8.30
2018-04-27T12:42:57.329Z,5.53
2018-04-27T12:45:24.940Z,6.80
2018-04-27T12:47:52.580Z,5.37
2018-04-27T12:50:20.965Z,5.80
2018-04-27T12:52:49.364Z,10.87
2018-04-27T12:55:16.979Z,6.87
2018-04-27T12:57:44.628Z,6.90
2018-04-27T13:00:12.243Z,6.33
2018-04-27T13:02:39.900Z,6.87
2018-04-27T13:05:07.525Z,6.13
2018-04-27T13:07:35.144Z,6.60
2018-04-27T13:10:03.844Z,6.43
2018-04-27T13:12:31.442Z,5.40
2018-04-27T13:14:59.842Z,11.23
2018-04-27T13:17:27.461Z,6.27
2018-04-27T13:19:55.107Z,6.83
2018-04-27T13:22:22.723Z,4.57
2018-04-27T13:24:50.360Z,6.40
2018-04-27T13:27:18.746Z,7.77
2018-04-27T13:29:47.156Z,6.67
2018-04-27T13:32:14.763Z,6.80
2018-04-27T13:34:42.403Z,9.00
2018-04-27T13:37:10.019Z,5.47
2018-04-27T13:39:37.647Z,4.93
2018-04-27T13:42:05.267Z,3.93
2018-04-27T13:44:32.982Z,4.83
2018-04-27T13:47:01.370Z,7.30
2018-04-27T13:49:29.779Z,4.97
2018-04-27T13:51:57.402Z,9.20
2018-04-27T13:54:25.843Z,7.73
2018-04-27T13:56:53.485Z,5.90
2018-04-27T13:59:21.152Z,7.00
2018-04-27T14:01:48.789Z,5.83
2018-04-27T14:04:16.416Z,7.53
2018-04-27T14:06:44.818Z,7.97
2018-04-27T14:09:12.436Z,5.50
2018-04-27T14:11:40.075Z,6.70
2018-04-27T14:14:07.709Z,8.07
2018-04-27T14:16:35.373Z,7.57
2018-04-27T14:19:03.024Z,4.90
2018-04-27T14:21:30.723Z,5.03
2018-04-27T14:23:58.325Z,5.50
2018-04-27T14:26:25.975Z,9.90
2018-04-27T14:28:53.577Z,6.67
2018-04-27T14:31:21.211Z,7.70
2018-04-27T14:33:49.659Z,9.07
2018-04-27T14:36:17.260Z,5.77
2018-04-27T14:38:45.655Z,6.67
2018-04-27T14:41:13.289Z,6.67
2018-04-27T14:43:41.657Z,6.83
2018-04-27T14:46:09.316Z,4.80
2018-04-27T14:48:36.940Z,4.30
2018-04-27T14:51:05.088Z,9.73
2018-04-27T14:53:33.644Z,4.60
2018-04-27T14:56:02.029Z,4.43
2018-04-27T14:58:30.424Z,4.37
2018-04-27T15:00:58.028Z,4.97
2018-04-27T15:03:25.668Z,8.37
2018-04-27T15:05:53.329Z,8.23
2018-04-27T15:08:20.956Z,4.70
2018-04-27T15:10:49.322Z,4.30
2018-04-27T15:13:17.730Z,11.43
2018-04-27T15:15:45.356Z,13.20
2018-04-27T15:18:13.780Z,11.13
2018-04-27T15:20:41.400Z,7.67
2018-04-27T15:23:09.814Z,7.90
2018-04-27T15:25:37.447Z,6.43
2018-04-27T15:28:05.861Z,6.63
2018-04-27T15:30:33.485Z,6.07
2018-04-27T15:33:01.869Z,8.13
2018-04-27T15:35:29.507Z,5.00
2018-04-27T15:37:57.125Z,5.50
2018-04-27T15:40:24.824Z,2.73
2018-04-27T15:42:52.484Z,3.07
2018-04-27T15:45:20.111Z,6.00
2018-04-27T15:47:47.730Z,8.70
2018-04-27T15:50:16.156Z,20.57
2018-04-27T15:52:43.829Z,10.70
2018-04-27T15:57:52.129Z,2.63
2018-04-27T16:00:21.529Z,6.70
2018-04-27T16:02:50.690Z,3.43
2018-04-27T16:05:18.980Z,7.13
2018-04-27T16:07:47.079Z,5.83
2018-04-27T16:10:15.526Z,6.33
2018-04-27T16:12:43.952Z,7.57
2018-04-27T16:15:11.604Z,7.73
2018-04-27T16:17:39.228Z,6.00
2018-04-27T16:20:06.877Z,3.80
2018-04-27T16:22:35.283Z,8.73
2018-04-27T16:25:02.947Z,5.43
2018-04-27T16:27:30.609Z,8.77
2018-04-27T16:29:58.237Z,8.73
2018-04-27T16:32:26.649Z,13.13
2018-04-27T16:34:54.267Z,7.07
2018-04-27T16:37:21.903Z,5.93
2018-04-27T16:39:49.506Z,3.97
2018-04-27T16:42:17.908Z,3.17
2018-04-27T16:44:45.513Z,8.03
2018-04-27T16:47:13.153Z,6.13
2018-04-27T16:49:40.852Z,9.43
2018-04-27T16:52:08.448Z,4.97
2018-04-27T16:54:36.078Z,8.50
2018-04-27T16:57:05.588Z,9.43
2018-04-27T16:59:35.186Z,6.03
2018-04-27T17:02:03.603Z,6.97
2018-04-27T17:04:31.248Z,7.70
2018-04-27T17:06:58.896Z,3.80
2018-04-27T17:09:27.328Z,7.30
2018-04-27T17:11:54.956Z,6.50
2018-04-27T17:14:22.563Z,7.43
2018-04-27T17:16:50.208Z,3.27
2018-04-27T17:19:17.873Z,6.23
2018-04-27T17:21:45.499Z,4.00
2018-04-27T17:24:13.137Z,4.17
2018-04-27T17:26:41.516Z,7.47
2018-04-27T17:29:09.937Z,3.13
2018-04-27T17:31:37.562Z,3.17
2018-04-27T17:34:06.011Z,3.80
2018-04-27T17:36:33.987Z,7.10
2018-04-27T17:39:01.621Z,4.80
2018-04-27T17:41:29.231Z,3.30
2018-04-27T17:43:57.648Z,11.60
2018-04-27T17:46:25.265Z,7.10
2018-04-27T17:48:53.689Z,3.30
2018-04-27T17:51:21.329Z,3.30
2018-04-27T17:53:48.944Z,5.27
2018-04-27T17:56:16.580Z,5.77
2018-04-27T17:58:44.208Z,3.90
2018-04-27T18:01:11.845Z,6.30
2018-04-27T18:03:40.213Z,6.67
2018-04-27T18:06:08.627Z,7.10
2018-04-27T18:08:36.247Z,5.03
2018-04-27T18:11:04.646Z,6.70
2018-04-27T18:13:33.741Z,6.80
2018-04-27T18:16:01.380Z,5.33
2018-04-27T18:18:29.005Z,6.47
2018-04-27T18:20:56.665Z,7.63
2018-04-27T18:23:24.280Z,5.87
2018-04-27T18:25:52.652Z,7.17
2018-04-27T18:28:21.073Z,6.47
2018-04-27T18:30:48.700Z,8.20
2018-04-27T18:33:16.402Z,8.07
2018-04-27T18:35:44.129Z,8.83
2018-04-27T18:38:11.812Z,4.50
2018-04-27T18:40:39.418Z,4.00
2018-04-27T18:43:07.083Z,6.50
2018-04-27T18:45:34.699Z,7.80
2018-04-27T18:48:07.849Z,5.97
2018-04-27T18:50:36.555Z,5.63
2018-04-27T18:53:05.385Z,4.87
2018-04-27T18:55:33.010Z,5.77
2018-04-27T18:58:00.625Z,5.33
2018-04-27T19:00:32.150Z,5.33
2018-04-27T19:02:59.764Z,9.03
2018-04-27T19:05:27.404Z,7.17
2018-04-27T19:07:57.756Z,5.50
2018-04-27T19:10:32.024Z,7.20
2018-04-27T19:12:59.633Z,5.63
2018-04-27T19:15:27.264Z,7.33
2018-04-27T19:18:00.186Z,5.30
2018-04-27T19:20:27.809Z,8.33
2018-04-27T19:22:58.128Z,7.67
2018-04-27T19:25:25.786Z,4.70
2018-04-27T19:27:53.395Z,5.50
2018-04-27T19:30:21.628Z,5.60
2018-04-27T19:32:50.645Z,4.53
2018-04-27T19:35:19.642Z,5.07
2018-04-27T19:37:48.939Z,4.87
2018-04-27T19:40:17.649Z,6.47
2018-04-27T19:42:45.466Z,5.33
2018-04-27T19:45:13.063Z,5.23
2018-04-27T19:47:41.434Z,8.40
2018-04-27T19:50:09.566Z,5.67
2018-04-27T19:52:38.162Z,6.00
2018-04-27T19:55:06.984Z,6.60
2018-04-27T19:57:35.444Z,7.60
2018-04-27T20:00:05.282Z,5.43
2018-04-27T20:02:35.461Z,6.83
2018-04-27T20:05:05.813Z,6.33
2018-04-27T20:07:35.499Z,5.40
2018-04-27T20:13:21.124Z,7.63
2018-04-27T20:15:52.013Z,7.20
2018-04-27T20:18:23.466Z,6.60
2018-04-27T20:20:52.754Z,4.83
2018-04-27T20:23:22.618Z,5.73
2018-04-27T20:25:51.742Z,5.80
2018-04-27T20:28:20.572Z,10.80
2018-04-27T20:30:49.062Z,6.80
2018-04-27T20:33:17.219Z,7.53
2018-04-27T20:35:45.142Z,6.83
2018-04-27T20:38:15.426Z,7.10
2018-04-27T20:40:43.032Z,5.90
2018-04-27T20:43:12.451Z,6.07
2018-04-27T20:45:40.064Z,6.20
2018-04-27T20:48:11.973Z,10.00
2018-04-27T20:50:39.625Z,6.80
2018-04-27T20:53:07.229Z,6.83
2018-04-27T20:55:34.859Z,6.63
2018-04-27T20:58:02.929Z,6.97
2018-04-27T21:00:31.349Z,10.93
2018-04-27T21:02:59.742Z,10.80
2018-04-27T21:05:27.371Z,7.83
2018-04-27T21:07:54.989Z,9.00
2018-04-27T21:10:22.638Z,6.87
2018-04-27T21:12:51.052Z,8.63
2018-04-27T21:15:18.688Z,6.90
2018-04-27T21:17:47.996Z,8.33
2018-04-27T21:20:19.525Z,8.07
2018-04-27T21:22:47.980Z,8.70
2018-04-27T21:25:31.288Z,6.80
2018-04-27T21:27:58.905Z,9.27
2018-04-27T21:30:26.539Z,7.70
2018-04-27T21:33:13.671Z,7.70
2018-04-27T21:35:42.851Z,7.80
2018-04-27T21:38:15.128Z,6.87
2018-04-27T21:40:42.738Z,7.40
2018-04-27T21:43:10.385Z,6.37
2018-04-27T21:45:38.005Z,7.73
2018-04-27T21:48:06.415Z,8.17
2018-04-27T21:50:34.786Z,7.97
2018-04-27T21:53:02.978Z,7.13
2018-04-27T21:55:30.591Z,8.17
2018-04-27T21:58:03.504Z,5.97
2018-04-27T22:00:31.117Z,6.57
2018-04-27T22:03:15.247Z,7.23
2018-04-27T22:05:49.814Z,9.40
2018-04-27T22:08:36.465Z,7.20
2018-04-27T22:14:07.815Z,6.80
2018-04-27T22:16:38.838Z,8.90
2018-04-27T22:19:06.476Z,8.20
2018-04-27T22:21:35.596Z,6.80
2018-04-27T22:24:04.138Z,8.03
2018-04-27T22:26:31.740Z,11.90
2018-04-27T22:29:00.235Z,7.27
2018-04-27T22:31:27.844Z,8.37
2018-04-27T22:33:56.301Z,7.77
2018-04-27T22:36:42.359Z,6.73
2018-04-27T22:42:17.745Z,7.80
2018-04-27T22:44:55.905Z,8.37
2018-04-27T22:47:27.248Z,7.67
2018-04-27T22:49:55.652Z,8.10
2018-04-27T22:52:23.264Z,7.90
2018-04-27T22:54:51.661Z,8.33
2018-04-27T22:57:31.875Z,7.30
2018-04-27T23:00:00.260Z,7.90
2018-04-27T23:02:27.858Z,7.97
2018-04-27T23:04:59.926Z,7.67
2018-04-27T23:07:33.887Z,8.70
2018-04-27T23:10:01.500Z,7.83
2018-04-27T23:12:44.785Z,8.07
2018-04-27T23:15:12.400Z,9.57
2018-04-27T23:17:40.022Z,7.77
2018-04-27T23:20:13.368Z,8.07
2018-04-27T23:22:44.182Z,8.70
2018-04-27T23:25:16.635Z,9.73
2018-04-27T23:27:45.019Z,7.87
2018-04-27T23:30:13.400Z,8.17
2018-04-27T23:32:41.801Z,8.20
2018-04-27T23:35:09.456Z,9.23
2018-04-27T23:37:37.096Z,7.17
2018-04-27T23:40:05.466Z,7.50
2018-04-27T23:42:33.724Z,7.10
2018-04-27T23:45:01.330Z,7.80
2018-04-27T23:47:28.971Z,10.10
2018-04-27T23:49:57.325Z,7.47
2018-04-27T23:52:24.966Z,6.93
2018-04-27T23:54:52.567Z,8.47
2018-04-27T23:57:20.968Z,9.10
2018-04-27T23:59:53.130Z,7.70
